Time;durP1;ratioP1;P1;durP2;ratioP2;P2;SDS_P1;SDS_P2;PMS_P1;PMS_P2;Temp;Humidity;BMP_temperature;BMP_pressure;BME280_temperature;BME280_humidity;BME280_pressure;Samples;Min_cycle;Max_cycle;Signal;HPM_P1;HPM_P2
2021/03/07 00:01:56;;;;;;;11.88;5.85;;;1.90;94.80;;;;;;5065052;28;20436;-39
2021/03/07 00:04:22;;;;;;;11.75;5.50;;;1.80;94.80;;;;;;5065580;28;20548;-39
2021/03/07 00:06:47;;;;;;;11.40;6.07;;;1.80;94.90;;;;;;5064783;28;20168;-39
2021/03/07 00:09:13;;;;;;;16.48;5.70;;;1.80;95.00;;;;;;5064829;28;20032;-37
2021/03/07 00:11:38;;;;;;;9.48;5.47;;;1.80;95.00;;;;;;5065103;28;20673;-38
2021/03/07 00:14:04;;;;;;;15.00;6.80;;;1.80;95.10;;;;;;5064654;28;20040;-39
2021/03/07 00:16:32;;;;;;;15.20;6.10;;;1.80;95.10;;;;;;5064838;28;20388;-39
2021/03/07 00:18:58;;;;;;;14.82;6.38;;;1.80;95.20;;;;;;5065104;28;20074;-40
2021/03/07 00:21:23;;;;;;;14.75;6.22;;;1.80;95.60;;;;;;5064625;28;20033;-37
2021/03/07 00:23:49;;;;;;;10.15;5.80;;;1.90;95.40;;;;;;5064771;28;20797;-39
2021/03/07 00:26:14;;;;;;;10.43;6.10;;;1.90;95.40;;;;;;5064804;28;20040;-37
2021/03/07 00:28:40;;;;;;;9.60;5.63;;;1.90;95.50;;;;;;5063262;28;20102;-38
2021/03/07 00:31:08;;;;;;;10.35;6.18;;;1.90;95.80;;;;;;5064222;28;20056;-40
2021/03/07 00:33:33;;;;;;;11.43;5.53;;;2.00;95.60;;;;;;5064608;28;20495;-35
2021/03/07 00:35:59;;;;;;;8.68;5.10;;;2.00;95.60;;;;;;5064162;28;20040;-39
2021/03/07 00:38:24;;;;;;;7.45;5.13;;;2.00;95.50;;;;;;5064341;28;20125;-39
2021/03/07 00:40:50;;;;;;;7.03;4.80;;;2.00;95.50;;;;;;5064813;28;20039;-40
2021/03/07 00:43:15;;;;;;;9.93;4.57;;;2.00;95.50;;;;;;5064102;28;20036;-40
2021/03/07 00:45:41;;;;;;;6.32;3.90;;;2.00;95.40;;;;;;5064995;28;20035;-37
2021/03/07 00:48:07;;;;;;;13.73;4.57;;;2.00;95.40;;;;;;5064557;28;20042;-39
2021/03/07 00:50:33;;;;;;;11.30;4.90;;;2.00;95.40;;;;;;5064424;28;20673;-36
2021/03/07 00:52:58;;;;;;;10.65;4.85;;;2.00;95.30;;;;;;5064576;28;20113;-37
2021/03/07 00:55:25;;;;;;;7.95;4.90;;;2.00;95.30;;;;;;5064360;28;20068;-38
2021/03/07 00:57:50;;;;;;;8.80;4.85;;;2.00;95.30;;;;;;5064357;28;20027;-37
2021/03/07 01:00:25;;;;;;;12.25;5.03;;;2.00;95.30;;;;;;5064330;28;20139;-38
2021/03/07 01:02:50;;;;;;;11.18;4.80;;;2.00;95.30;;;;;;5064392;28;20025;-36
2021/03/07 01:05:16;;;;;;;13.73;4.57;;;2.00;95.20;;;;;;5064433;28;20021;-38
2021/03/07 01:07:42;;;;;;;6.97;4.47;;;2.00;95.20;;;;;;5063950;28;20062;-36
2021/03/07 01:10:31;;;;;;;5.07;3.72;;;2.00;95.20;;;;;;5063903;28;20021;-38
2021/03/07 01:12:57;;;;;;;7.78;4.30;;;2.00;95.30;;;;;;5064401;28;20510;-37
2021/03/07 01:15:28;;;;;;;6.65;4.07;;;1.90;95.30;;;;;;5064597;28;20048;-39
2021/03/07 01:17:54;;;;;;;5.47;3.60;;;1.90;95.10;;;;;;5063675;28;20460;-39
2021/03/07 01:20:20;;;;;;;6.22;3.60;;;1.90;95.10;;;;;;5064442;28;20054;-38
2021/03/07 01:22:49;;;;;;;5.85;3.20;;;1.80;95.00;;;;;;5064439;28;20045;-38
2021/03/07 01:25:17;;;;;;;7.82;3.10;;;1.80;95.00;;;;;;5063722;28;20025;-35
2021/03/07 01:27:42;;;;;;;9.18;4.13;;;1.70;95.00;;;;;;5064084;28;20486;-39
2021/03/07 01:30:09;;;;;;;7.15;3.80;;;1.60;95.00;;;;;;5063884;28;20087;-37
2021/03/07 01:32:36;;;;;;;6.53;3.35;;;1.60;95.00;;;;;;5063835;28;20051;-38
2021/03/07 01:35:03;;;;;;;7.65;3.40;;;1.50;95.00;;;;;;5063929;28;20063;-38
2021/03/07 01:37:28;;;;;;;3.88;3.38;;;1.50;95.00;;;;;;5066762;28;20166;-39
2021/03/07 01:39:56;;;;;;;4.68;3.30;;;1.50;95.00;;;;;;5067123;28;20174;-37
2021/03/07 01:42:22;;;;;;;5.40;3.10;;;1.40;94.90;;;;;;5067975;28;20021;-38
2021/03/07 01:44:48;;;;;;;7.32;3.63;;;1.40;94.90;;;;;;5067843;28;20032;-39
2021/03/07 01:47:21;;;;;;;4.65;3.30;;;1.30;94.90;;;;;;5067220;28;20107;-38
2021/03/07 01:49:46;;;;;;;8.20;3.45;;;1.30;94.90;;;;;;5067852;28;20040;-37
2021/03/07 01:52:12;;;;;;;4.03;3.22;;;1.30;94.90;;;;;;5068175;28;20021;-38
2021/03/07 01:54:37;;;;;;;4.25;3.13;;;1.20;94.80;;;;;;5066897;28;20037;-39
2021/03/07 01:57:05;;;;;;;5.78;3.13;;;1.20;94.90;;;;;;5067638;28;20045;-38
2021/03/07 01:59:33;;;;;;;4.90;3.50;;;1.20;94.90;;;;;;5067341;28;20258;-38
2021/03/07 02:02:00;;;;;;;8.73;3.35;;;1.10;94.80;;;;;;5067449;28;20029;-38
2021/03/07 02:04:25;;;;;;;8.25;3.50;;;1.10;94.80;;;;;;5067360;28;20040;-36
2021/03/07 02:06:51;;;;;;;5.38;3.42;;;1.10;94.90;;;;;;5067446;28;20043;-37
2021/03/07 02:09:17;;;;;;;4.80;3.47;;;1.00;94.80;;;;;;5067237;28;20032;-38
2021/03/07 02:11:44;;;;;;;7.18;3.88;;;1.00;94.80;;;;;;5067119;28;20058;-38
2021/03/07 02:14:10;;;;;;;7.72;5.13;;;1.00;94.90;;;;;;5066927;28;20089;-38
2021/03/07 02:16:37;;;;;;;5.28;3.33;;;1.00;94.80;;;;;;5067259;28;20036;-37
2021/03/07 02:19:04;;;;;;;7.53;4.15;;;1.00;94.80;;;;;;5067348;28;20067;-35
2021/03/07 02:21:48;;;;;;;5.25;3.65;;;1.00;94.80;;;;;;5066547;28;20066;-39
2021/03/07 02:24:15;;;;;;;4.38;3.10;;;1.00;94.80;;;;;;5067120;28;20033;-38
2021/03/07 02:26:51;;;;;;;5.30;3.63;;;1.00;94.80;;;;;;5066381;28;20310;-38
2021/03/07 02:29:20;;;;;;;10.90;4.35;;;1.00;94.80;;;;;;5066810;28;20067;-38
2021/03/07 02:31:55;;;;;;;5.78;3.53;;;1.00;94.80;;;;;;5067100;28;20037;-38
2021/03/07 02:34:43;;;;;;;6.55;4.15;;;0.90;94.80;;;;;;5047019;28;20115;-39
2021/03/07 02:37:12;;;;;;;6.07;4.20;;;0.90;94.80;;;;;;5064582;28;20089;-39
2021/03/07 02:39:41;;;;;;;6.43;4.00;;;0.90;94.80;;;;;;5067225;28;20025;-39
2021/03/07 02:42:21;;;;;;;5.88;3.72;;;0.90;94.80;;;;;;5066192;28;20111;-41
2021/03/07 02:45:01;;;;;;;5.43;4.00;;;0.90;94.80;;;;;;5046697;28;20032;-39
2021/03/07 02:47:31;;;;;;;7.22;3.97;;;0.90;94.80;;;;;;5064213;28;20612;-39
2021/03/07 02:50:01;;;;;;;7.20;3.72;;;0.80;94.80;;;;;;5065692;28;20150;-39
2021/03/07 02:52:27;;;;;;;5.88;3.83;;;0.80;94.80;;;;;;5066573;28;20488;-38
2021/03/07 02:54:54;;;;;;;6.60;3.67;;;0.80;94.80;;;;;;5066414;28;20041;-39
2021/03/07 02:57:24;;;;;;;6.50;4.72;;;0.80;94.80;;;;;;5065993;28;20455;-38
2021/03/07 02:59:51;;;;;;;6.57;4.15;;;0.80;94.80;;;;;;5066450;28;20033;-38
2021/03/07 03:02:18;;;;;;;6.95;4.22;;;0.80;94.80;;;;;;5066290;28;20025;-39
2021/03/07 03:04:47;;;;;;;5.93;4.07;;;0.70;94.80;;;;;;5066150;28;20021;-38
2021/03/07 03:07:13;;;;;;;6.68;4.18;;;0.70;94.80;;;;;;5066176;28;20016;-38
2021/03/07 03:09:39;;;;;;;6.30;4.20;;;0.70;94.80;;;;;;5066144;28;20054;-38
2021/03/07 03:12:06;;;;;;;7.80;3.50;;;0.70;94.80;;;;;;5066202;28;20028;-38
2021/03/07 03:14:32;;;;;;;6.53;3.85;;;0.70;94.80;;;;;;5066090;28;20056;-38
2021/03/07 03:17:00;;;;;;;8.25;4.13;;;0.70;94.80;;;;;;5065744;28;20525;-36
2021/03/07 03:19:27;;;;;;;7.75;4.32;;;0.70;94.80;;;;;;5054986;28;20219;-39
2021/03/07 03:21:54;;;;;;;8.30;4.32;;;0.70;94.80;;;;;;5066251;28;20060;-39
2021/03/07 03:24:21;;;;;;;6.38;4.32;;;0.60;94.70;;;;;;5065433;28;20028;-38
2021/03/07 03:26:46;;;;;;;5.00;3.70;;;0.60;94.80;;;;;;5065783;28;20126;-39
2021/03/07 03:29:12;;;;;;;5.78;3.92;;;0.60;94.80;;;;;;5065713;28;20458;-39
2021/03/07 03:31:39;;;;;;;6.70;4.20;;;0.60;94.80;;;;;;5065293;28;20094;-38
2021/03/07 03:34:07;;;;;;;6.43;4.30;;;0.60;94.80;;;;;;5065381;28;20024;-39
2021/03/07 03:36:35;;;;;;;6.63;3.72;;;0.60;94.80;;;;;;5065645;28;20102;-39
2021/03/07 03:39:08;;;;;;;6.40;3.95;;;0.60;94.80;;;;;;5065544;28;20158;-41
2021/03/07 03:41:36;;;;;;;5.05;3.90;;;0.60;94.80;;;;;;5045632;28;20064;-40
2021/03/07 03:44:07;;;;;;;8.18;4.18;;;0.50;94.80;;;;;;5060400;28;20399;-39
2021/03/07 03:46:38;;;;;;;5.05;3.80;;;0.50;94.80;;;;;;5065395;28;20071;-39
2021/03/07 03:49:09;;;;;;;5.70;4.18;;;0.50;94.80;;;;;;5065124;28;20036;-38
2021/03/07 03:51:36;;;;;;;4.43;3.58;;;0.40;94.80;;;;;;5065013;28;20396;-36
2021/03/07 03:54:03;;;;;;;6.82;3.95;;;0.40;94.80;;;;;;5065124;28;20042;-38
2021/03/07 03:56:30;;;;;;;5.07;3.80;;;0.40;94.80;;;;;;5065225;28;20349;-39
2021/03/07 03:59:01;;;;;;;5.30;3.55;;;0.40;94.80;;;;;;5065101;28;20111;-38
2021/03/07 04:01:26;;;;;;;6.97;3.70;;;0.40;94.80;;;;;;5064879;28;20491;-39
2021/03/07 04:03:54;;;;;;;6.88;4.30;;;0.40;94.80;;;;;;5064775;28;20025;-39
2021/03/07 04:06:25;;;;;;;6.25;4.18;;;0.30;94.80;;;;;;5064349;28;20029;-38
2021/03/07 04:08:52;;;;;;;6.13;3.60;;;0.30;94.80;;;;;;5064928;28;20025;-39
2021/03/07 04:11:18;;;;;;;5.43;4.13;;;0.30;94.80;;;;;;5065085;28;20067;-38
2021/03/07 04:13:45;;;;;;;4.78;3.55;;;0.30;94.90;;;;;;5064238;28;20577;-38
2021/03/07 04:16:11;;;;;;;4.70;3.60;;;0.20;94.80;;;;;;5065225;28;20064;-38
2021/03/07 04:18:37;;;;;;;5.88;3.97;;;0.20;94.80;;;;;;5064650;28;20058;-40
2021/03/07 04:21:03;;;;;;;6.18;3.92;;;0.20;94.80;;;;;;5064066;28;20020;-36
2021/03/07 04:23:29;;;;;;;4.97;3.70;;;0.20;94.80;;;;;;5065205;28;20098;-38
2021/03/07 04:25:55;;;;;;;5.57;3.65;;;0.20;94.80;;;;;;5064813;28;20375;-39
2021/03/07 04:28:22;;;;;;;7.03;4.53;;;0.20;94.80;;;;;;5064416;28;20479;-39
2021/03/07 04:30:48;;;;;;;6.55;4.65;;;0.10;95.00;;;;;;5064578;28;20031;-38
2021/03/07 04:33:13;;;;;;;7.32;4.10;;;0.20;94.80;;;;;;5064557;28;20012;-39
2021/03/07 04:35:42;;;;;;;6.20;4.15;;;0.10;94.80;;;;;;5063717;28;20062;-39
2021/03/07 04:38:08;;;;;;;6.43;4.00;;;0.10;94.80;;;;;;5064815;28;20317;-39
2021/03/07 04:40:36;;;;;;;5.50;4.25;;;0.00;94.90;;;;;;5064505;28;20036;-38
2021/03/07 04:43:03;;;;;;;6.60;4.65;;;0.00;94.90;;;;;;5064572;28;20025;-39
2021/03/07 04:45:29;;;;;;;7.32;4.53;;;-0.10;94.90;;;;;;5065021;28;20017;-39
2021/03/07 04:47:54;;;;;;;8.00;4.70;;;-0.10;95.00;;;;;;5064657;28;20154;-39
2021/03/07 04:50:20;;;;;;;6.20;4.70;;;-0.20;95.10;;;;;;5063734;28;20495;-40
2021/03/07 04:52:46;;;;;;;7.70;4.72;;;-0.20;95.30;;;;;;5065275;28;20136;-40
2021/03/07 04:55:12;;;;;;;5.78;4.60;;;-0.30;95.40;;;;;;5063543;28;20028;-39
2021/03/07 04:57:38;;;;;;;7.47;4.63;;;-0.30;95.60;;;;;;5064546;28;20139;-38
2021/03/07 05:00:17;;;;;;;6.57;3.90;;;-0.30;95.70;;;;;;5064496;28;20158;-38
2021/03/07 05:02:42;;;;;;;6.90;4.20;;;-0.30;95.70;;;;;;5064092;28;20032;-39
2021/03/07 05:05:08;;;;;;;6.30;4.40;;;-0.30;95.70;;;;;;5064248;28;20463;-39
2021/03/07 05:07:34;;;;;;;6.20;3.42;;;-0.30;95.70;;;;;;5064747;28;20035;-39
2021/03/07 05:10:00;;;;;;;4.78;3.58;;;-0.30;95.60;;;;;;5064274;28;20024;-41
2021/03/07 05:12:28;;;;;;;6.57;3.95;;;-0.30;95.70;;;;;;5063410;28;20125;-38
2021/03/07 05:14:54;;;;;;;6.77;4.53;;;-0.30;95.80;;;;;;5064367;28;20044;-37
2021/03/07 05:17:19;;;;;;;6.18;4.25;;;-0.20;95.70;;;;;;5063782;28;20021;-39
2021/03/07 05:19:45;;;;;;;4.68;3.50;;;-0.30;95.60;;;;;;5064229;28;20088;-39
2021/03/07 05:22:10;;;;;;;5.00;3.40;;;-0.20;95.60;;;;;;5064405;28;20408;-38
2021/03/07 05:24:37;;;;;;;4.28;3.40;;;-0.10;95.50;;;;;;5063869;28;20419;-35
2021/03/07 05:27:05;;;;;;;4.90;3.63;;;-0.10;95.40;;;;;;5064241;28;20024;-38
2021/03/07 05:29:33;;;;;;;7.70;4.30;;;-0.10;95.40;;;;;;5064160;28;20033;-39
2021/03/07 05:32:00;;;;;;;5.85;3.95;;;-0.10;95.50;;;;;;5063865;28;20020;-39
2021/03/07 05:34:25;;;;;;;7.32;4.35;;;-0.10;95.50;;;;;;5063614;28;20028;-38
2021/03/07 05:36:51;;;;;;;6.32;4.63;;;0.00;95.60;;;;;;5064321;28;20089;-38
2021/03/07 05:39:16;;;;;;;6.55;4.72;;;0.00;95.70;;;;;;5064120;28;20051;-38
2021/03/07 05:41:42;;;;;;;5.85;4.13;;;0.10;95.80;;;;;;5063918;28;20325;-39
2021/03/07 05:44:09;;;;;;;5.95;4.43;;;0.10;95.70;;;;;;5064222;28;20031;-39
2021/03/07 05:46:36;;;;;;;6.38;4.70;;;0.20;95.90;;;;;;5063735;28;20060;-37
2021/03/07 05:49:04;;;;;;;6.85;4.75;;;0.20;95.70;;;;;;5063836;28;20097;-39
2021/03/07 05:51:33;;;;;;;4.82;3.70;;;0.30;95.50;;;;;;5064140;28;20059;-39
2021/03/07 05:53:59;;;;;;;3.97;3.53;;;0.40;95.40;;;;;;5063751;28;20013;-38
2021/03/07 05:56:26;;;;;;;5.55;4.07;;;0.40;95.40;;;;;;5063815;28;20165;-37
2021/03/07 05:58:53;;;;;;;3.63;3.20;;;0.50;95.30;;;;;;5063623;28;20116;-40
2021/03/07 06:01:19;;;;;;;3.72;2.60;;;0.60;95.30;;;;;;5063647;28;20028;-38
2021/03/07 06:03:45;;;;;;;4.38;2.65;;;0.70;95.20;;;;;;5064034;28;20108;-38
2021/03/07 06:06:10;;;;;;;3.78;3.08;;;0.70;95.10;;;;;;5063637;28;20073;-38
2021/03/07 06:08:36;;;;;;;5.80;2.90;;;0.80;95.00;;;;;;5063858;28;20029;-39
2021/03/07 06:11:02;;;;;;;4.20;2.90;;;0.80;95.00;;;;;;5064525;28;20060;-38
2021/03/07 06:13:38;;;;;;;3.65;2.85;;;0.80;94.90;;;;;;5063625;28;20013;-41
2021/03/07 06:16:09;;;;;;;3.42;2.80;;;0.80;94.80;;;;;;5063972;28;20724;-38
2021/03/07 06:18:45;;;;;;;3.25;2.67;;;0.90;94.80;;;;;;5063484;28;20399;-39
2021/03/07 06:21:31;;;;;;;2.97;2.67;;;0.90;94.80;;;;;;5063133;28;20116;-39
2021/03/07 06:23:58;;;;;;;6.30;3.30;;;0.90;94.80;;;;;;5066116;28;20025;-39
2021/03/07 06:26:23;;;;;;;5.30;3.80;;;0.90;94.90;;;;;;5067158;28;20032;-39
2021/03/07 06:29:09;;;;;;;6.03;3.42;;;0.90;94.80;;;;;;5066612;28;20107;-37
2021/03/07 06:31:36;;;;;;;3.58;3.20;;;0.90;94.80;;;;;;5067581;28;20491;-43
2021/03/07 06:34:01;;;;;;;4.30;3.40;;;1.00;94.70;;;;;;5066878;28;20111;-37
2021/03/07 06:36:28;;;;;;;3.92;3.20;;;1.00;94.80;;;;;;5067816;28;20116;-40
2021/03/07 06:38:59;;;;;;;4.03;3.45;;;1.00;94.80;;;;;;5067307;28;20669;-40
2021/03/07 06:41:28;;;;;;;4.85;4.10;;;1.00;94.70;;;;;;5067212;28;20111;-39
2021/03/07 06:44:07;;;;;;;6.45;3.95;;;1.00;94.70;;;;;;5067258;28;20582;-40
2021/03/07 06:46:36;;;;;;;6.60;4.90;;;0.90;94.70;;;;;;5058001;28;20055;-38
2021/03/07 06:49:03;;;;;;;6.20;4.63;;;0.90;95.20;;;;;;5066921;28;20085;-41
2021/03/07 06:51:37;;;;;;;7.63;5.72;;;0.90;95.10;;;;;;5067618;28;20049;-39
2021/03/07 06:54:13;;;;;;;8.30;5.88;;;0.80;95.30;;;;;;5066836;28;20207;-37
2021/03/07 06:56:43;;;;;;;6.45;5.47;;;0.80;95.50;;;;;;5066432;28;20098;-39
2021/03/07 06:59:10;;;;;;;9.73;6.75;;;0.80;95.60;;;;;;5066817;28;20017;-37
2021/03/07 07:01:46;;;;;;;9.73;6.35;;;0.80;95.80;;;;;;5066838;28;20024;-39
2021/03/07 07:04:13;;;;;;;9.43;6.78;;;0.80;95.90;;;;;;5066668;28;20029;-37
2021/03/07 07:06:39;;;;;;;12.98;7.32;;;0.90;95.90;;;;;;5066756;28;20052;-35
2021/03/07 07:09:07;;;;;;;13.38;8.88;;;0.90;96.00;;;;;;5066429;28;20177;-39
2021/03/07 07:11:47;;;;;;;10.02;7.15;;;0.90;96.10;;;;;;5066471;28;20050;-37
2021/03/07 07:14:32;;;;;;;14.30;8.90;;;1.00;96.10;;;;;;5066400;28;20472;-39
2021/03/07 07:16:58;;;;;;;11.25;8.02;;;1.00;96.10;;;;;;5066953;28;20033;-38
2021/03/07 07:19:24;;;;;;;9.35;7.18;;;1.10;96.10;;;;;;5066790;28;20012;-39
2021/03/07 07:21:50;;;;;;;12.40;8.48;;;1.10;96.10;;;;;;5067115;28;20055;-36
2021/03/07 07:24:15;;;;;;;12.32;8.43;;;1.20;96.10;;;;;;5067260;28;20143;-39
2021/03/07 07:26:44;;;;;;;14.75;9.65;;;1.30;96.20;;;;;;5067410;28;20032;-40
2021/03/07 07:29:10;;;;;;;10.73;7.10;;;1.30;96.10;;;;;;5066656;28;20024;-34
2021/03/07 07:31:40;;;;;;;12.18;8.27;;;1.40;96.20;;;;;;5066264;28;20651;-40
2021/03/07 07:34:14;;;;;;;10.57;7.65;;;1.50;96.10;;;;;;5066381;28;20082;-38
2021/03/07 07:36:51;;;;;;;11.40;7.22;;;1.50;96.10;;;;;;5066271;28;20089;-33
2021/03/07 07:39:30;;;;;;;13.73;7.80;;;1.60;96.00;;;;;;5065466;28;20040;-41
2021/03/07 07:41:56;;;;;;;11.10;7.65;;;1.70;96.00;;;;;;5066717;28;20193;-39
2021/03/07 07:44:31;;;;;;;14.55;9.48;;;1.80;95.90;;;;;;5065875;28;20024;-37
2021/03/07 07:47:03;;;;;;;16.58;9.45;;;1.90;95.90;;;;;;5065961;28;20032;-38
2021/03/07 07:50:00;;;;;;;11.90;9.23;;;1.90;95.80;;;;;;5066075;28;20029;-38
2021/03/07 07:52:26;;;;;;;13.48;9.88;;;2.00;95.80;;;;;;5041997;28;20476;-37
2021/03/07 07:54:55;;;;;;;15.32;8.90;;;2.10;95.70;;;;;;5066043;28;20040;-37
2021/03/07 07:57:40;;;;;;;14.70;9.93;;;2.10;95.70;;;;;;5065410;28;20064;-38
2021/03/07 08:00:10;;;;;;;11.15;8.68;;;2.20;95.70;;;;;;5065740;28;20040;-38
2021/03/07 08:02:56;;;;;;;15.73;7.97;;;2.20;95.60;;;;;;5065453;28;20405;-38
2021/03/07 08:05:21;;;;;;;14.23;8.43;;;2.30;95.60;;;;;;5045500;28;20135;-38
2021/03/07 08:08:04;;;;;;;11.40;8.25;;;2.40;95.50;;;;;;5060398;28;20119;-38
2021/03/07 08:10:39;;;;;;;11.52;8.25;;;2.50;95.50;;;;;;5045731;28;20169;-38
2021/03/07 08:13:13;;;;;;;11.27;8.05;;;2.50;95.30;;;;;;5061033;28;20032;-39
2021/03/07 08:15:49;;;;;;;10.65;6.93;;;2.70;95.30;;;;;;5045666;28;20056;-38
2021/03/07 08:18:17;;;;;;;8.88;6.43;;;2.70;95.20;;;;;;5059096;28;20129;-37
2021/03/07 08:20:44;;;;;;;11.82;7.45;;;2.80;95.20;;;;;;5055280;28;20021;-42
2021/03/07 08:23:12;;;;;;;8.60;6.18;;;2.90;95.10;;;;;;5058877;28;20032;-39
2021/03/07 08:25:46;;;;;;;11.07;6.32;;;3.00;95.00;;;;;;5065667;28;20025;-40
2021/03/07 08:28:42;;;;;;;7.90;5.63;;;3.00;94.90;;;;;;5064716;28;20442;-39
2021/03/07 08:31:09;;;;;;;15.02;6.57;;;3.10;94.90;;;;;;5064423;28;20068;-40
2021/03/07 08:33:39;;;;;;;9.40;6.15;;;3.20;94.80;;;;;;5064270;28;20048;-39
2021/03/07 08:36:17;;;;;;;10.43;6.65;;;3.20;94.70;;;;;;5065645;28;20051;-39
2021/03/07 08:38:48;;;;;;;10.60;6.47;;;3.30;94.60;;;;;;5064872;28;20152;-45
2021/03/07 08:41:14;;;;;;;7.88;5.72;;;3.40;94.50;;;;;;5064684;28;20041;-39
2021/03/07 08:43:40;;;;;;;9.38;5.97;;;3.40;94.40;;;;;;5064734;28;20033;-40
2021/03/07 08:46:09;;;;;;;9.48;6.25;;;3.40;94.10;;;;;;5061994;28;20036;-39
2021/03/07 08:48:39;;;;;;;9.20;6.03;;;3.50;94.00;;;;;;5063107;28;20025;-38
2021/03/07 08:51:06;;;;;;;7.53;6.00;;;3.60;93.50;;;;;;5064390;28;20028;-40
2021/03/07 08:53:34;;;;;;;7.65;5.57;;;3.60;92.50;;;;;;5064563;28;20029;-40
2021/03/07 08:56:00;;;;;;;6.53;4.93;;;3.60;92.50;;;;;;5063894;28;20056;-39
2021/03/07 08:58:26;;;;;;;7.53;5.13;;;3.70;92.40;;;;;;5064097;28;20124;-37
2021/03/07 09:00:54;;;;;;;8.07;5.45;;;3.70;91.30;;;;;;5064211;28;20043;-36
2021/03/07 09:03:21;;;;;;;4.70;4.20;;;3.70;91.50;;;;;;5063855;28;20016;-40
2021/03/07 09:05:48;;;;;;;6.38;4.13;;;3.80;91.90;;;;;;5064335;28;20040;-40
2021/03/07 09:08:14;;;;;;;5.30;3.75;;;3.90;91.00;;;;;;5064443;28;20025;-40
2021/03/07 09:10:46;;;;;;;3.67;3.17;;;4.00;91.40;;;;;;5060342;28;20444;-40
2021/03/07 09:13:20;;;;;;;3.67;3.25;;;4.10;91.30;;;;;;5064863;28;20028;-37
2021/03/07 09:15:50;;;;;;;4.30;2.75;;;4.20;91.40;;;;;;5062332;28;20449;-40
2021/03/07 09:18:19;;;;;;;2.88;2.67;;;4.40;91.40;;;;;;5064453;28;20043;-40
2021/03/07 09:20:57;;;;;;;3.92;3.05;;;4.60;91.60;;;;;;5064120;28;20628;-38
2021/03/07 09:23:32;;;;;;;3.75;2.67;;;4.70;90.90;;;;;;5063842;28;20589;-37
2021/03/07 09:26:00;;;;;;;2.80;2.40;;;4.90;90.80;;;;;;5064081;28;20024;-39
2021/03/07 09:28:37;;;;;;;3.15;2.55;;;5.00;90.70;;;;;;5064621;28;20033;-38
2021/03/07 09:31:06;;;;;;;4.28;2.97;;;5.10;90.50;;;;;;5063425;28;20121;-38
2021/03/07 09:33:32;;;;;;;3.15;2.40;;;5.20;89.00;;;;;;5064221;28;20024;-39
2021/03/07 09:36:08;;;;;;;2.88;2.60;;;5.20;86.70;;;;;;5063944;28;20105;-36
2021/03/07 09:38:48;;;;;;;3.72;2.45;;;5.30;86.50;;;;;;5043475;28;20025;-38
2021/03/07 09:41:17;;;;;;;3.05;2.20;;;5.30;80.20;;;;;;5060999;28;20123;-39
2021/03/07 09:43:45;;;;;;;3.28;2.53;;;5.30;79.00;;;;;;5063523;28;20068;-38
2021/03/07 09:46:12;;;;;;;2.53;2.17;;;5.30;76.80;;;;;;5063459;28;20251;-39
2021/03/07 09:48:39;;;;;;;2.47;2.15;;;5.30;79.50;;;;;;5064179;28;20035;-39
2021/03/07 09:51:06;;;;;;;3.47;2.53;;;5.40;79.50;;;;;;5063011;28;20778;-39
2021/03/07 09:53:36;;;;;;;2.72;2.03;;;5.50;71.40;;;;;;5064352;28;20250;-41
2021/03/07 09:56:02;;;;;;;2.50;1.67;;;5.50;73.30;;;;;;5063520;28;20128;-39
2021/03/07 09:58:35;;;;;;;2.90;2.03;;;5.50;75.00;;;;;;5065593;28;20167;-38
2021/03/07 10:01:04;;;;;;;2.95;1.67;;;5.60;75.80;;;;;;5067787;28;20495;-40
2021/03/07 10:03:32;;;;;;;4.75;2.20;;;5.70;75.50;;;;;;5067932;28;20017;-39
2021/03/07 10:06:10;;;;;;;2.38;2.00;;;5.70;72.50;;;;;;5067336;28;20253;-40
2021/03/07 10:08:37;;;;;;;3.17;1.83;;;5.70;74.20;;;;;;5067546;28;20094;-37
2021/03/07 10:11:23;;;;;;;2.75;1.88;;;5.80;75.00;;;;;;5066748;28;20021;-42
2021/03/07 10:14:03;;;;;;;2.53;1.90;;;5.80;76.10;;;;;;5066674;28;20067;-39
2021/03/07 10:16:31;;;;;;;2.58;2.15;;;5.90;76.60;;;;;;5068091;28;20141;-37
2021/03/07 10:19:13;;;;;;;2.45;2.10;;;5.90;76.30;;;;;;5068079;28;20032;-36
2021/03/07 10:21:40;;;;;;;3.60;2.22;;;5.90;76.30;;;;;;5067864;28;20032;-39
2021/03/07 10:24:10;;;;;;;2.80;2.13;;;6.00;76.70;;;;;;5066189;28;20531;-39
2021/03/07 10:26:37;;;;;;;3.15;2.22;;;6.00;74.70;;;;;;5065095;28;20046;-39
2021/03/07 10:29:21;;;;;;;2.28;1.98;;;5.90;75.20;;;;;;5067166;28;20432;-42
2021/03/07 10:32:15;;;;;;;3.47;2.22;;;5.90;73.10;;;;;;5067577;28;20085;-39
2021/03/07 10:34:42;;;;;;;;;;;5.80;71.20;;;;;;5067333;28;20151;-39
2021/03/07 10:37:12;;;;;;;2.35;1.85;;;5.70;72.50;;;;;;5067898;28;19908;-39
2021/03/07 10:39:37;;;;;;;3.42;2.00;;;5.70;72.60;;;;;;5067834;28;20054;-40
2021/03/07 10:42:04;;;;;;;3.25;1.80;;;5.60;73.10;;;;;;5067109;28;20020;-39
2021/03/07 10:44:29;;;;;;;2.78;1.90;;;5.60;71.20;;;;;;5067439;28;20110;-39
2021/03/07 10:46:55;;;;;;;1.48;1.30;;;5.60;68.10;;;;;;5067213;28;20029;-39
2021/03/07 10:49:20;;;;;;;2.85;1.77;;;5.60;70.10;;;;;;5067440;28;20028;-37
2021/03/07 10:51:46;;;;;;;2.85;1.63;;;5.60;70.30;;;;;;5067518;28;20548;-39
2021/03/07 10:54:18;;;;;;;1.75;1.30;;;5.60;70.90;;;;;;5066738;28;20081;-40
2021/03/07 10:56:45;;;;;;;1.63;1.38;;;5.60;71.10;;;;;;5067044;28;20389;-39
2021/03/07 10:59:14;;;;;;;1.70;1.58;;;5.60;70.40;;;;;;5066910;28;20047;-39
2021/03/07 11:01:40;;;;;;;2.88;1.60;;;5.70;70.00;;;;;;5046996;28;20363;-40
2021/03/07 11:04:05;;;;;;;2.17;1.70;;;5.80;69.60;;;;;;5065258;28;20547;-38
2021/03/07 11:06:31;;;;;;;1.70;1.50;;;5.90;68.00;;;;;;5066986;28;20097;-40
2021/03/07 11:08:56;;;;;;;1.85;1.50;;;6.00;69.40;;;;;;5066325;28;20025;-41
2021/03/07 11:11:22;;;;;;;1.80;1.50;;;6.10;65.60;;;;;;5065568;28;20396;-40
2021/03/07 11:13:48;;;;;;;2.83;1.58;;;6.30;66.00;;;;;;5066899;28;20016;-39
2021/03/07 11:16:13;;;;;;;3.30;1.60;;;6.40;67.30;;;;;;5066371;28;20044;-40
2021/03/07 11:18:39;;;;;;;2.33;1.40;;;6.50;67.10;;;;;;5066812;28;20459;-40
2021/03/07 11:21:05;;;;;;;2.15;1.25;;;6.60;66.20;;;;;;5066999;28;20753;-38
2021/03/07 11:23:33;;;;;;;2.75;1.20;;;6.70;65.90;;;;;;5066065;28;20032;-39
2021/03/07 11:25:59;;;;;;;2.30;1.30;;;6.80;66.50;;;;;;5066667;28;20033;-39
2021/03/07 11:28:25;;;;;;;4.05;1.45;;;6.80;64.30;;;;;;5066253;28;20485;-39
2021/03/07 11:30:51;;;;;;;1.55;1.10;;;6.80;63.10;;;;;;5065929;28;20116;-39
2021/03/07 11:33:18;;;;;;;2.08;1.42;;;6.70;62.80;;;;;;5062567;28;20060;-39
2021/03/07 11:35:44;;;;;;;3.22;1.58;;;6.70;63.90;;;;;;5062244;28;20453;-40
2021/03/07 11:38:10;;;;;;;3.17;1.90;;;6.60;64.60;;;;;;5064770;28;20028;-41
2021/03/07 11:40:36;;;;;;;2.75;1.27;;;6.70;64.50;;;;;;5065658;28;20094;-38
2021/03/07 11:43:02;;;;;;;3.60;1.60;;;6.70;65.00;;;;;;5063572;28;20012;-37
2021/03/07 11:45:27;;;;;;;2.22;1.42;;;6.80;63.50;;;;;;5064095;28;20024;-38
2021/03/07 11:47:53;;;;;;;4.57;2.10;;;6.90;63.90;;;;;;5065940;28;20059;-42
2021/03/07 11:50:19;;;;;;;3.25;2.17;;;7.00;63.40;;;;;;5065573;28;20028;-38
2021/03/07 11:52:45;;;;;;;2.40;2.20;;;7.00;62.30;;;;;;5066292;28;20020;-39
2021/03/07 11:55:11;;;;;;;2.83;2.20;;;6.90;63.10;;;;;;5065850;28;20043;-40
2021/03/07 11:57:36;;;;;;;3.17;2.05;;;6.90;63.80;;;;;;5065094;28;20743;-37
2021/03/07 12:00:05;;;;;;;3.85;2.13;;;6.90;64.10;;;;;;5066057;28;20025;-38
2021/03/07 12:02:30;;;;;;;2.88;2.10;;;7.00;65.80;;;;;;5065954;28;20021;-39
2021/03/07 12:04:56;;;;;;;2.83;2.00;;;7.10;65.70;;;;;;5066028;28;20498;-39
2021/03/07 12:07:21;;;;;;;2.28;1.80;;;7.20;62.70;;;;;;5065973;28;20440;-38
2021/03/07 12:09:47;;;;;;;4.28;1.83;;;7.20;62.00;;;;;;5065399;28;20024;-38
2021/03/07 12:12:13;;;;;;;3.22;2.40;;;7.20;61.70;;;;;;5054726;28;20119;-38
2021/03/07 12:14:38;;;;;;;4.28;3.42;;;7.10;61.90;;;;;;5063098;28;20744;-38
2021/03/07 12:17:04;;;;;;;3.47;3.00;;;7.10;62.20;;;;;;5065862;28;20110;-38
2021/03/07 12:19:30;;;;;;;2.70;2.40;;;7.00;62.30;;;;;;5065217;28;20024;-40
2021/03/07 12:21:56;;;;;;;3.22;2.45;;;7.00;63.10;;;;;;5065529;28;20025;-39
2021/03/07 12:24:21;;;;;;;2.70;1.90;;;7.10;62.60;;;;;;5065747;28;20047;-39
2021/03/07 12:26:47;;;;;;;5.10;2.72;;;7.10;63.10;;;;;;5065256;28;20040;-39
2021/03/07 12:29:12;;;;;;;5.47;2.20;;;7.20;62.50;;;;;;5066053;28;20047;-38
2021/03/07 12:31:38;;;;;;;3.15;1.77;;;7.30;62.30;;;;;;5066057;28;20549;-39
2021/03/07 12:34:04;;;;;;;2.92;2.15;;;7.30;62.80;;;;;;5065068;28;20013;-39
2021/03/07 12:36:29;;;;;;;2.15;1.83;;;7.40;63.00;;;;;;5065699;28;20210;-40
2021/03/07 12:38:56;;;;;;;2.60;1.98;;;7.50;63.40;;;;;;5066268;28;20124;-39
2021/03/07 12:41:21;;;;;;;3.38;2.60;;;7.50;63.40;;;;;;5064678;28;20596;-39
2021/03/07 12:43:47;;;;;;;3.72;2.65;;;7.50;63.00;;;;;;5065047;28;20028;-37
2021/03/07 12:46:13;;;;;;;3.63;2.42;;;7.50;62.80;;;;;;5062595;28;20714;-37
2021/03/07 12:48:38;;;;;;;3.10;2.60;;;7.50;62.80;;;;;;5063407;28;20024;-36
2021/03/07 12:51:04;;;;;;;3.08;2.47;;;7.40;62.70;;;;;;5059699;28;20037;-40
2021/03/07 12:53:30;;;;;;;3.65;2.38;;;7.30;63.00;;;;;;5065088;28;20032;-39
2021/03/07 12:55:56;;;;;;;3.33;2.10;;;7.30;61.60;;;;;;5059795;28;20182;-38
2021/03/07 12:58:22;;;;;;;3.20;2.20;;;7.20;63.00;;;;;;5064468;28;20119;-38
2021/03/07 13:00:51;;;;;;;4.05;2.47;;;7.20;63.50;;;;;;5064871;28;20205;-40
2021/03/07 13:03:17;;;;;;;3.83;2.65;;;7.20;63.50;;;;;;5064859;28;20032;-38